Time;durP1;ratioP1;P1;durP2;ratioP2;P2;SDS_P1;SDS_P2;PMS_P1;PMS_P2;Temp;Humidity;BMP_temperature;BMP_pressure;BME280_temperature;BME280_humidity;BME280_pressure;Samples;Min_cycle;Max_cycle;Signal;HPM_P1;HPM_P2
2023/03/21 00:00:29;;;;;;;15.55;6.63;;;;;;;8.72;89.72;101595.94;5032828;28;20416;-82
2023/03/21 00:02:54;;;;;;;11.63;6.38;;;;;;;8.68;89.98;101589.06;5032836;28;20048;-82
2023/03/21 00:05:20;;;;;;;9.02;5.82;;;;;;;8.67;89.97;101592.53;5031232;28;20018;-82
2023/03/21 00:07:46;;;;;;;13.65;6.38;;;;;;;8.63;90.56;101592.53;5029480;28;20421;-82
2023/03/21 00:10:11;;;;;;;10.50;5.85;;;;;;;8.62;90.38;101590.81;5014418;28;20033;-82
2023/03/21 00:12:36;;;;;;;12.52;6.32;;;;;;;8.60;90.64;101584.75;5014065;28;20022;-82
2023/03/21 00:15:06;;;;;;;11.50;6.35;;;;;;;8.58;90.81;101578.72;5030962;28;20059;-83
2023/03/21 00:17:32;;;;;;;11.50;5.90;;;;;;;8.59;91.01;101582.19;5030902;28;20029;-83
2023/03/21 00:19:59;;;;;;;11.13;6.38;;;;;;;8.57;91.00;101576.16;5030837;28;20032;-81
2023/03/21 00:22:26;;;;;;;12.50;6.47;;;;;;;8.54;91.32;101571.81;5032966;28;20058;-82
2023/03/21 00:24:52;;;;;;;12.98;6.32;;;;;;;8.53;91.40;101572.72;5030162;28;20037;-82
2023/03/21 00:27:18;;;;;;;9.95;5.75;;;;;;;8.54;91.41;101568.38;5029493;28;20099;-82
2023/03/21 00:29:45;;;;;;;11.50;6.03;;;;;;;8.52;91.76;101568.41;5015012;28;20488;-82
2023/03/21 00:32:10;;;;;;;9.20;6.03;;;;;;;8.52;91.75;101568.41;5027753;28;20112;-82
2023/03/21 00:34:37;;;;;;;11.05;6.05;;;;;;;8.52;92.10;101557.16;5026850;28;20105;-82
2023/03/21 00:37:02;;;;;;;11.90;5.63;;;;;;;8.52;92.45;101558.03;5030718;28;20022;-82
2023/03/21 00:39:28;;;;;;;10.77;5.65;;;;;;;8.52;92.15;101562.34;5030188;28;20093;-82
2023/03/21 00:41:53;;;;;;;8.70;5.85;;;;;;;8.51;92.25;101558.91;5028972;28;20478;-83
2023/03/21 00:44:18;;;;;;;9.32;6.00;;;;;;;8.51;92.10;101556.31;5028016;28;20472;-83
2023/03/21 00:46:44;;;;;;;9.48;5.43;;;;;;;8.52;92.14;101547.66;5027393;28;20025;-83
2023/03/21 00:49:09;;;;;;;10.02;5.38;;;;;;;8.52;92.03;101547.66;5027104;28;20381;-82
2023/03/21 00:51:35;;;;;;;9.30;5.80;;;;;;;8.53;92.18;101548.50;5029470;28;20079;-82
2023/03/21 00:54:00;;;;;;;10.57;5.40;;;;;;;8.52;92.30;101547.66;5028283;28;20032;-83
2023/03/21 00:56:25;;;;;;;9.45;5.68;;;;;;;8.53;92.48;101540.72;5029418;28;20032;-83
2023/03/21 00:58:51;;;;;;;10.68;5.88;;;;;;;8.52;92.53;101537.28;5013968;28;20515;-83
2023/03/21 01:01:16;;;;;;;10.13;5.82;;;;;;;8.52;92.47;101532.09;5031693;28;20021;-83
2023/03/21 01:03:46;;;;;;;10.00;5.55;;;;;;;8.53;92.37;101531.22;5031683;28;20167;-82
2023/03/21 01:06:12;;;;;;;9.73;5.75;;;;;;;8.54;92.05;101534.66;5029700;28;20025;-82
2023/03/21 01:08:42;;;;;;;12.45;6.05;;;;;;;8.55;92.34;101531.19;5031280;28;20034;-83
2023/03/21 01:11:14;;;;;;;10.45;5.40;;;;;;;8.55;92.07;101526.84;5031862;28;20112;-83
2023/03/21 01:13:40;;;;;;;10.60;5.53;;;;;;;8.55;91.78;101526.84;5031392;28;20029;-83
2023/03/21 01:16:07;;;;;;;8.75;5.40;;;;;;;8.57;91.56;101519.94;5030919;28;20026;-82
2023/03/21 01:18:34;;;;;;;10.02;5.13;;;;;;;8.59;91.37;101518.19;5031438;28;20032;-83
2023/03/21 01:21:00;;;;;;;10.57;5.28;;;;;;;8.61;90.93;101519.06;5031341;28;20052;-83
2023/03/21 01:23:28;;;;;;;10.27;5.53;;;;;;;8.62;90.97;101512.16;5014034;28;20025;-82
2023/03/21 01:25:55;;;;;;;10.55;5.32;;;;;;;8.64;90.89;101510.38;5030719;28;20033;-83
2023/03/21 01:28:21;;;;;;;9.65;5.50;;;;;;;8.65;90.61;101512.97;5028539;28;20404;-82
2023/03/21 01:30:48;;;;;;;12.25;5.05;;;;;;;8.65;90.83;101507.78;5031217;28;20034;-83
2023/03/21 01:33:14;;;;;;;9.20;5.00;;;;;;;8.67;90.45;101499.13;5031848;28;20025;-82
2023/03/21 01:35:39;;;;;;;10.63;5.05;;;;;;;8.67;90.42;101493.94;5027749;28;20025;-82
2023/03/21 01:38:05;;;;;;;7.85;4.53;;;;;;;8.67;90.57;101484.41;5032714;28;20029;-82
2023/03/21 01:40:30;;;;;;;10.63;4.82;;;;;;;8.69;90.47;101487.88;5028504;28;20392;-82
2023/03/21 01:42:56;;;;;;;8.77;4.57;;;;;;;8.70;90.42;101483.56;5031395;28;20033;-83
2023/03/21 01:45:58;;;;;;;8.90;4.80;;;;;;;8.71;90.11;101474.91;5027410;28;20025;-82
2023/03/21 01:48:26;;;;;;;9.52;4.68;;;;;;;8.71;90.19;101480.94;5029927;28;20034;-82
2023/03/21 01:50:51;;;;;;;12.43;5.10;;;;;;;8.73;89.89;101479.19;5029997;28;20053;-82
2023/03/21 01:53:20;;;;;;;9.15;4.88;;;;;;;8.72;89.94;101474.88;5028890;28;20052;-82
2023/03/21 01:55:48;;;;;;;8.32;4.97;;;;;;;8.74;89.95;101474.84;5028022;28;20060;-82
2023/03/21 01:58:17;;;;;;;11.80;4.93;;;;;;;8.72;89.73;101477.47;5029070;28;20071;-82
2023/03/21 02:00:43;;;;;;;10.82;5.05;;;;;;;8.73;89.81;101470.53;5011629;28;20026;-83
2023/03/21 02:03:10;;;;;;;11.05;4.70;;;;;;;8.72;89.73;101472.28;5026812;28;20026;-82
2023/03/21 02:06:04;;;;;;;9.15;4.47;;;;;;;8.73;89.55;101458.44;5031109;28;20021;-82
2023/03/21 02:08:32;;;;;;;8.48;4.57;;;;;;;8.72;89.78;101454.13;5033735;28;20032;-82
2023/03/21 02:10:58;;;;;;;9.30;4.45;;;;;;;8.72;89.72;101458.44;5033372;28;20026;-82
2023/03/21 02:13:23;;;;;;;9.43;4.30;;;;;;;8.70;89.61;101462.81;5034622;28;20060;-83
2023/03/21 02:16:00;;;;;;;8.13;4.10;;;;;;;8.70;89.66;101458.47;5031852;28;20033;-83
2023/03/21 02:18:54;;;;;;;11.02;4.85;;;;;;;8.70;89.71;101453.28;5035036;28;20108;-82
2023/03/21 02:21:28;;;;;;;7.88;4.35;;;;;;;8.69;89.55;101450.72;5033850;28;20053;-82
2023/03/21 02:24:12;;;;;;;8.48;4.40;;;;;;;8.69;89.38;101450.72;5031577;28;20031;-82
2023/03/21 02:26:56;;;;;;;10.05;4.68;;;;;;;8.68;89.71;101438.59;5032900;28;20060;-82
2023/03/21 02:29:51;;;;;;;10.23;4.53;;;;;;;8.68;89.56;101433.41;5032707;28;20022;-82
2023/03/21 02:32:45;;;;;;;10.05;4.80;;;;;;;8.64;89.79;101433.44;5017755;28;20358;-82
2023/03/21 02:35:22;;;;;;;10.45;4.88;;;;;;;8.63;89.91;101431.72;5028145;28;20021;-82
2023/03/21 02:37:52;;;;;;;9.25;4.75;;;;;;;8.62;89.88;101423.97;5034777;28;20025;-82
2023/03/21 02:40:33;;;;;;;10.68;4.82;;;;;;;8.61;89.99;101423.09;5032318;28;20025;-82
2023/03/21 02:43:24;;;;;;;8.93;5.00;;;;;;;8.61;90.06;101415.31;5034046;28;20067;-82
2023/03/21 02:46:00;;;;;;;8.43;4.53;;;;;;;8.60;90.05;101418.78;5032608;28;20064;-83
2023/03/21 02:48:33;;;;;;;9.02;4.95;;;;;;;8.57;90.30;101416.19;5033765;28;20112;-83
2023/03/21 02:51:01;;;;;;;9.80;4.97;;;;;;;8.56;90.08;101418.81;5030867;28;20030;-82
2023/03/21 02:53:31;;;;;;;9.75;5.20;;;;;;;8.55;89.99;101417.94;5032565;28;20104;-82
2023/03/21 02:55:58;;;;;;;9.80;5.18;;;;;;;8.55;89.98;101427.47;5032160;28;20026;-82
2023/03/21 02:58:26;;;;;;;13.02;5.40;;;;;;;8.54;90.23;101424.00;5033987;28;20485;-83
2023/03/21 03:00:55;;;;;;;11.40;5.47;;;;;;;8.55;90.08;101417.09;5032516;28;20038;-83
2023/03/21 03:03:20;;;;;;;7.97;4.43;;;;;;;8.54;90.12;101416.22;5032643;28;20018;-82
2023/03/21 03:05:54;;;;;;;9.23;5.10;;;;;;;8.54;90.03;101415.38;5033423;28;20075;-82
2023/03/21 03:08:32;;;;;;;9.95;5.13;;;;;;;8.54;90.01;101412.78;5033378;28;20120;-82
2023/03/21 03:11:10;;;;;;;10.85;5.03;;;;;;;8.53;89.89;101411.94;5030410;28;20021;-82
2023/03/21 03:14:07;;;;;;;7.93;4.50;;;;;;;8.54;89.81;101405.84;5033423;28;20087;-82
2023/03/21 03:17:04;;;;;;;9.63;5.30;;;;;;;8.52;89.95;101404.13;5031129;28;20045;-82
2023/03/21 03:19:33;;;;;;;9.70;4.95;;;;;;;8.50;89.80;101399.81;5032825;28;20029;-82
2023/03/21 03:22:09;;;;;;;9.60;5.05;;;;;;;8.51;90.00;101405.88;5029512;28;20046;-82
2023/03/21 03:24:46;;;;;;;11.20;5.30;;;;;;;8.49;89.77;101399.84;5034837;28;20029;-82
2023/03/21 03:27:25;;;;;;;10.18;5.28;;;;;;;8.48;89.93;101391.19;5031667;28;20058;-82
2023/03/21 03:29:53;;;;;;;10.88;4.90;;;;;;;8.49;90.01;101394.66;5034429;28;20426;-82
2023/03/21 03:32:26;;;;;;;10.40;5.00;;;;;;;8.48;90.04;101395.53;5030760;28;20028;-82
2023/03/21 03:34:55;;;;;;;10.38;4.72;;;;;;;8.47;89.90;101398.97;5031492;28;20368;-82
2023/03/21 03:37:25;;;;;;;9.98;4.88;;;;;;;8.47;89.92;101405.00;5032971;28;20013;-82
2023/03/21 03:40:10;;;;;;;8.80;4.55;;;;;;;8.46;90.26;101392.06;5030147;28;20116;-82
2023/03/21 03:42:51;;;;;;;9.35;4.60;;;;;;;8.46;90.14;101392.06;5030497;28;20030;-82
2023/03/21 03:45:18;;;;;;;8.07;4.65;;;;;;;8.45;90.22;101390.34;5031378;28;20401;-83
2023/03/21 03:47:57;;;;;;;12.50;4.90;;;;;;;8.44;89.96;101388.63;5032513;28;20140;-82
2023/03/21 03:50:30;;;;;;;9.13;4.38;;;;;;;8.44;90.16;101383.44;5032340;28;20565;-82
2023/03/21 03:53:03;;;;;;;10.43;4.55;;;;;;;8.42;90.14;101386.03;5031979;28;20036;-82
2023/03/21 03:55:33;;;;;;;11.30;5.22;;;;;;;8.42;90.14;101374.81;5031196;28;20037;-83
2023/03/21 03:57:59;;;;;;;10.35;4.70;;;;;;;8.41;89.98;101378.25;5031406;28;20017;-82
2023/03/21 04:00:26;;;;;;;10.93;5.00;;;;;;;8.40;89.98;101380.00;5015380;28;20040;-82
2023/03/21 04:02:52;;;;;;;10.27;5.13;;;;;;;8.39;89.85;101377.41;5014781;28;20550;-82
2023/03/21 04:05:19;;;;;;;10.50;5.05;;;;;;;8.40;89.97;101376.53;5029917;28;20037;-83
2023/03/21 04:07:49;;;;;;;10.27;5.05;;;;;;;8.39;89.91;101372.22;5029200;28;20044;-82
2023/03/21 04:10:15;;;;;;;12.15;5.30;;;;;;;8.37;90.32;101374.84;5032422;28;20029;-82
2023/03/21 04:12:41;;;;;;;11.02;5.10;;;;;;;8.34;90.47;101367.97;5029040;28;20021;-82
2023/03/21 04:15:07;;;;;;;12.20;5.03;;;;;;;8.35;90.34;101364.50;5031025;28;20443;-82
2023/03/21 04:17:32;;;;;;;10.55;5.07;;;;;;;8.35;90.47;101371.41;5029633;28;20044;-82
2023/03/21 04:19:58;;;;;;;7.43;4.57;;;;;;;8.33;90.76;101374.03;5031562;28;20021;-83
2023/03/21 04:22:23;;;;;;;10.35;4.97;;;;;;;8.30;90.99;101363.66;5030899;28;20506;-82
2023/03/21 04:24:49;;;;;;;10.05;5.50;;;;;;;8.30;90.78;101361.06;5033301;28;20441;-82
2023/03/21 04:27:14;;;;;;;11.30;5.20;;;;;;;8.30;90.87;101361.06;5030589;28;20033;-82
2023/03/21 04:29:40;;;;;;;9.48;4.80;;;;;;;8.28;90.77;101357.63;5029204;28;20111;-83
2023/03/21 04:32:14;;;;;;;8.77;4.70;;;;;;;8.27;90.72;101353.31;5027633;28;20407;-82
2023/03/21 04:34:42;;;;;;;9.27;4.97;;;;;;;8.27;90.76;101350.72;5028986;28;20071;-82
2023/03/21 04:37:10;;;;;;;11.73;5.38;;;;;;;8.27;90.80;101355.91;5016833;28;20083;-82
2023/03/21 04:39:37;;;;;;;8.98;4.85;;;;;;;8.26;90.99;101354.19;5027966;28;20037;-83
2023/03/21 04:42:03;;;;;;;9.50;5.38;;;;;;;8.27;90.79;101355.06;5015377;28;20028;-82
2023/03/21 04:44:28;;;;;;;11.95;5.28;;;;;;;8.26;90.85;101346.41;5029565;28;20092;-82
2023/03/21 04:46:53;;;;;;;12.10;5.35;;;;;;;8.26;90.53;101343.81;5030209;28;20120;-82
2023/03/21 04:49:20;;;;;;;11.23;5.78;;;;;;;8.26;90.77;101342.97;5027764;28;20393;-82
2023/03/21 04:51:45;;;;;;;11.93;5.35;;;;;;;8.25;90.41;101339.50;5032700;28;20121;-83
2023/03/21 04:54:12;;;;;;;10.52;5.50;;;;;;;8.24;90.65;101342.97;5030326;28;20096;-82
2023/03/21 04:56:38;;;;;;;12.68;5.72;;;;;;;8.24;90.27;101332.59;5015238;28;20120;-83
2023/03/21 04:59:10;;;;;;;11.10;5.80;;;;;;;8.25;90.21;101338.66;5030691;28;20539;-82
2023/03/21 05:01:35;;;;;;;11.35;5.82;;;;;;;8.26;90.11;101343.81;5013432;28;20476;-83
2023/03/21 05:04:02;;;;;;;10.20;5.15;;;;;;;8.27;90.20;101335.16;5033951;28;20103;-82
2023/03/21 05:06:28;;;;;;;12.45;5.35;;;;;;;8.26;90.15;101330.84;5030939;28;20029;-82
2023/03/21 05:08:58;;;;;;;12.60;5.80;;;;;;;8.27;90.10;101329.97;5029560;28;20047;-82
2023/03/21 05:11:26;;;;;;;11.60;5.57;;;;;;;8.27;90.19;101335.16;5033785;28;20431;-82
2023/03/21 05:13:51;;;;;;;10.40;5.28;;;;;;;8.27;90.19;101329.97;5031481;28;20021;-82
2023/03/21 05:16:16;;;;;;;10.32;5.53;;;;;;;8.25;90.05;101329.13;5028885;28;20096;-82
2023/03/21 05:18:42;;;;;;;9.80;5.18;;;;;;;8.26;90.33;101335.19;5028183;28;20391;-82
2023/03/21 05:21:09;;;;;;;10.18;5.45;;;;;;;8.27;90.11;101332.56;5028264;28;20385;-82
2023/03/21 05:23:37;;;;;;;11.98;5.47;;;;;;;8.26;90.16;101325.66;5030972;28;20025;-83
2023/03/21 05:26:07;;;;;;;15.93;6.00;;;;;;;8.27;89.98;101327.41;5028477;28;20014;-82
2023/03/21 05:28:35;;;;;;;14.43;5.50;;;;;;;8.28;89.86;101325.69;5029295;28;20029;-83
2023/03/21 05:31:03;;;;;;;12.15;5.28;;;;;;;8.28;89.67;101326.53;5026659;28;20045;-82
2023/03/21 05:33:29;;;;;;;12.52;5.07;;;;;;;8.29;89.83;101327.38;5029535;28;20032;-82
2023/03/21 05:35:54;;;;;;;12.85;5.38;;;;;;;8.29;89.51;101320.47;5026198;28;20116;-83
2023/03/21 05:38:20;;;;;;;11.77;5.20;;;;;;;8.29;89.67;101317.88;5027355;28;20057;-83
2023/03/21 05:40:47;;;;;;;11.55;5.20;;;;;;;8.30;89.71;101319.59;5027756;28;20048;-83
2023/03/21 05:43:12;;;;;;;10.85;5.32;;;;;;;8.30;89.32;101329.09;5029355;28;20035;-82
2023/03/21 05:45:37;;;;;;;10.60;5.32;;;;;;;8.31;89.93;101315.25;5030356;28;20038;-82
2023/03/21 05:48:02;;;;;;;10.82;5.07;;;;;;;8.32;89.54;101316.97;5029344;28;20113;-82
2023/03/21 05:50:28;;;;;;;10.70;5.25;;;;;;;8.33;89.40;101324.75;5026906;28;20041;-82
2023/03/21 05:52:53;;;;;;;10.32;5.03;;;;;;;8.34;89.33;101320.41;5029587;28;20029;-83
2023/03/21 05:55:19;;;;;;;11.07;4.93;;;;;;;8.36;89.16;101318.69;5029314;28;20071;-79
2023/03/21 05:57:44;;;;;;;11.05;5.00;;;;;;;8.37;89.26;101319.56;5029698;28;20025;-79
2023/03/21 06:00:10;;;;;;;9.20;4.95;;;;;;;8.35;89.32;101323.03;5024574;28;20033;-83
2023/03/21 06:02:36;;;;;;;11.10;5.10;;;;;;;8.39;89.14;101322.97;5030333;28;20036;-82
2023/03/21 06:05:02;;;;;;;9.55;5.07;;;;;;;8.40;89.04;101314.31;5027300;28;20025;-82
2023/03/21 06:07:28;;;;;;;11.80;5.43;;;;;;;8.39;88.75;101312.59;5032478;28;20033;-83
2023/03/21 06:09:53;;;;;;;12.43;5.45;;;;;;;8.40;89.00;101316.91;5027297;28;20043;-82
2023/03/21 06:12:18;;;;;;;12.93;5.28;;;;;;;8.41;88.99;101321.22;5030570;28;20112;-82
2023/03/21 06:14:44;;;;;;;10.85;5.22;;;;;;;8.43;89.19;101316.88;5030315;28;20034;-82
2023/03/21 06:17:09;;;;;;;11.65;5.03;;;;;;;8.43;89.12;101319.47;5029238;28;20469;-82
2023/03/21 06:19:34;;;;;;;13.75;4.93;;;;;;;8.43;89.10;101317.75;5026990;28;20041;-82
2023/03/21 06:22:00;;;;;;;13.20;4.85;;;;;;;8.46;89.21;101316.88;5027627;28;20073;-82
2023/03/21 06:24:26;;;;;;;10.65;4.82;;;;;;;8.46;89.02;101315.13;5029193;28;20116;-82
2023/03/21 06:26:51;;;;;;;11.07;4.70;;;;;;;8.48;89.11;101326.38;5028568;28;20413;-82
2023/03/21 06:29:16;;;;;;;8.80;4.70;;;;;;;8.50;89.15;101321.19;5026260;28;20033;-82
2023/03/21 06:31:42;;;;;;;10.95;4.75;;;;;;;8.52;88.77;101323.75;5028150;28;20033;-82
2023/03/21 06:34:09;;;;;;;9.95;4.85;;;;;;;8.54;88.65;101320.25;5027603;28;20052;-82
2023/03/21 06:36:35;;;;;;;11.98;4.90;;;;;;;8.56;88.89;101326.28;5014002;28;20502;-82
2023/03/21 06:39:00;;;;;;;9.27;4.50;;;;;;;8.56;88.82;101326.28;5029872;28;20049;-82
2023/03/21 06:41:26;;;;;;;9.45;4.57;;;;;;;8.59;88.83;101323.69;5025684;28;20027;-82
2023/03/21 06:43:51;;;;;;;9.25;4.57;;;;;;;8.63;88.36;101327.97;5029687;28;20018;-82
2023/03/21 06:46:16;;;;;;;9.68;4.32;;;;;;;8.67;88.39;101328.78;5029179;28;20037;-82
2023/03/21 06:48:43;;;;;;;9.30;4.30;;;;;;;8.68;88.51;101316.69;5028952;28;20056;-82
2023/03/21 06:51:10;;;;;;;10.35;4.25;;;;;;;8.71;88.43;101329.63;5011914;28;20626;-83
2023/03/21 06:53:36;;;;;;;11.00;4.15;;;;;;;8.72;88.49;101320.94;5030577;28;20025;-82
2023/03/21 06:56:01;;;;;;;9.50;4.30;;;;;;;8.76;88.35;101325.25;5032891;28;20036;-82
2023/03/21 06:58:26;;;;;;;10.02;4.00;;;;;;;8.77;88.82;101324.38;5033793;28;20043;-82
2023/03/21 07:00:52;;;;;;;9.70;3.80;;;;;;;8.78;88.42;101320.91;5033106;28;20061;-82
2023/03/21 07:03:18;;;;;;;8.68;3.92;;;;;;;8.80;88.54;101325.19;5032964;28;20124;-82
2023/03/21 07:05:43;;;;;;;10.05;3.92;;;;;;;8.80;88.72;101320.00;5034257;28;20022;-82
2023/03/21 07:08:11;;;;;;;9.23;3.83;;;;;;;8.82;89.12;101332.97;5034121;28;20029;-82
2023/03/21 07:10:41;;;;;;;8.77;4.00;;;;;;;8.83;89.22;101332.09;5032756;28;20538;-82
2023/03/21 07:13:06;;;;;;;9.98;3.67;;;;;;;8.83;89.61;101321.72;5032913;28;20032;-82
2023/03/21 07:15:33;;;;;;;8.57;3.60;;;;;;;8.84;89.81;101331.22;5034322;28;20018;-82
2023/03/21 07:17:59;;;;;;;7.68;3.60;;;;;;;8.85;89.91;101332.94;5033859;28;20024;-82
2023/03/21 07:20:25;;;;;;;9.98;3.67;;;;;;;8.84;90.37;101336.41;5032820;28;20025;-82
2023/03/21 07:22:51;;;;;;;8.98;3.50;;;;;;;8.86;90.08;101344.16;5033136;28;20022;-82
2023/03/21 07:25:16;;;;;;;8.23;3.53;;;;;;;8.87;90.28;101349.34;5033780;28;20160;-82
2023/03/21 07:27:42;;;;;;;12.07;3.85;;;;;;;8.87;90.19;101346.75;5032226;28;20056;-82
2023/03/21 07:30:09;;;;;;;7.32;3.20;;;;;;;8.88;90.30;101339.81;5029378;28;20025;-82
2023/03/21 07:32:36;;;;;;;6.45;3.42;;;;;;;8.88;90.60;101343.25;5030715;28;20029;-82
2023/03/21 07:35:02;;;;;;;8.13;3.40;;;;;;;8.89;90.49;101342.38;5031039;28;20025;-82
2023/03/21 07:37:27;;;;;;;8.82;3.35;;;;;;;8.89;90.67;101350.19;5030918;28;20036;-82
2023/03/21 07:39:52;;;;;;;8.23;3.50;;;;;;;8.90;90.54;101351.91;5031525;28;20112;-82
2023/03/21 07:42:19;;;;;;;6.38;3.13;;;;;;;8.90;91.05;101343.28;5030038;28;20044;-83
2023/03/21 07:44:44;;;;;;;8.73;3.80;;;;;;;8.91;90.62;101347.59;5033367;28;20397;-83
2023/03/21 07:47:09;;;;;;;8.98;3.47;;;;;;;8.92;91.03;101350.16;5031907;28;20041;-82
2023/03/21 07:49:36;;;;;;;6.70;3.60;;;;;;;8.94;91.43;101345.81;5031592;28;20036;-82
2023/03/21 07:52:01;;;;;;;7.88;3.63;;;;;;;8.97;90.76;101355.28;5032558;28;20385;-83
2023/03/21 07:54:27;;;;;;;9.32;3.35;;;;;;;8.97;90.82;101350.09;5032278;28;20025;-82
2023/03/21 07:56:53;;;;;;;10.90;3.67;;;;;;;8.98;91.11;101351.81;5032151;28;20087;-83
2023/03/21 07:59:19;;;;;;;7.18;3.25;;;;;;;8.99;91.46;101347.50;5029660;28;20096;-83
2023/03/21 08:01:44;;;;;;;8.50;3.90;;;;;;;8.99;91.50;101342.31;5029672;28;20108;-82
2023/03/21 08:04:10;;;;;;;10.40;3.83;;;;;;;8.99;91.37;101343.16;5028308;28;20159;-82
2023/03/21 08:06:35;;;;;;;7.95;3.80;;;;;;;8.99;91.36;101339.72;5028958;28;20056;-83
2023/03/21 08:09:02;;;;;;;9.38;3.75;;;;;;;8.98;91.69;101344.03;5029934;28;20024;-83
2023/03/21 08:11:30;;;;;;;8.43;4.13;;;;;;;8.99;92.28;101335.38;5029217;28;20022;-83
2023/03/21 08:13:56;;;;;;;9.23;4.22;;;;;;;9.01;91.91;101333.63;5014816;28;20033;-83
2023/03/21 08:16:21;;;;;;;12.50;4.00;;;;;;;9.02;92.06;101329.31;5030025;28;21257;-83
2023/03/21 08:18:46;;;;;;;9.23;4.40;;;;;;;9.02;92.50;101324.13;5029975;28;20423;-83
2023/03/21 08:21:12;;;;;;;7.90;3.63;;;;;;;9.03;92.39;101316.28;5031482;28;20049;-83
2023/03/21 08:23:37;;;;;;;9.50;4.63;;;;;;;9.07;92.72;101306.72;5026517;28;20025;-83
2023/03/21 08:26:02;;;;;;;9.45;3.97;;;;;;;9.09;92.78;101304.97;5029002;28;20032;-83
2023/03/21 08:28:28;;;;;;;7.13;3.83;;;;;;;9.12;92.45;101302.34;5025298;28;20029;-83
2023/03/21 08:30:53;;;;;;;9.38;4.35;;;;;;;9.15;93.13;101296.25;5023056;28;20025;-83
2023/03/21 08:33:19;;;;;;;9.55;4.40;;;;;;;9.19;93.24;101296.22;5025500;28;20493;-83
2023/03/21 08:35:45;;;;;;;11.10;4.15;;;;;;;9.22;93.17;101290.13;5030356;28;20072;-83
2023/03/21 08:38:11;;;;;;;9.48;4.35;;;;;;;9.24;93.69;101294.41;5027138;28;20025;-83
2023/03/21 08:40:36;;;;;;;8.93;4.45;;;;;;;9.26;92.48;101289.22;5028111;28;20017;-83
2023/03/21 08:43:02;;;;;;;10.32;4.50;;;;;;;9.25;92.81;101285.72;5028215;28;20021;-83
2023/03/21 08:45:27;;;;;;;9.02;4.60;;;;;;;9.24;92.13;101289.22;5026710;28;20036;-83
2023/03/21 08:47:53;;;;;;;9.80;4.95;;;;;;;9.24;92.86;101290.97;5024556;28;20037;-83
2023/03/21 08:50:21;;;;;;;9.20;4.30;;;;;;;9.20;93.09;101292.75;5029497;28;20026;-83
2023/03/21 08:52:48;;;;;;;8.43;4.40;;;;;;;9.22;92.64;101295.31;5026659;28;20022;-83
2023/03/21 08:55:15;;;;;;;10.93;4.53;;;;;;;9.20;92.92;101290.16;5029588;28;20353;-83
2023/03/21 08:57:41;;;;;;;11.98;4.45;;;;;;;9.22;92.80;101290.97;5030389;28;20021;-83
2023/03/21 09:00:11;;;;;;;8.52;4.03;;;;;;;9.23;92.77;101287.50;5030554;28;20029;-83
2023/03/21 09:02:37;;;;;;;9.50;4.28;;;;;;;9.23;92.75;101284.91;5025130;28;20032;-83
2023/03/21 09:05:04;;;;;;;8.45;4.25;;;;;;;9.29;92.79;101281.38;5026714;28;20025;-83
2023/03/21 09:07:33;;;;;;;11.88;4.15;;;;;;;9.30;93.00;101274.44;5029837;28;20033;-84
2023/03/21 09:09:59;;;;;;;8.93;4.10;;;;;;;9.31;92.91;101286.53;5014114;28;20029;-83
2023/03/21 09:12:24;;;;;;;9.80;4.25;;;;;;;9.34;93.03;101276.13;5024232;28;20512;-83
2023/03/21 09:14:52;;;;;;;8.48;4.03;;;;;;;9.36;92.48;101266.56;5029037;28;20116;-83
2023/03/21 09:17:17;;;;;;;8.77;4.10;;;;;;;9.39;92.69;101272.56;5026232;28;20029;-83
2023/03/21 09:19:45;;;;;;;7.35;3.97;;;;;;;9.44;93.39;101272.50;5025916;28;20021;-83
2023/03/21 09:22:16;;;;;;;8.82;3.75;;;;;;;9.49;93.60;101273.31;5031560;28;20067;-83
2023/03/21 09:24:42;;;;;;;8.20;4.10;;;;;;;9.54;92.65;101270.63;5027297;28;20208;-83
2023/03/21 09:27:07;;;;;;;8.82;4.15;;;;;;;9.57;93.53;101274.03;5028348;28;20448;-83
2023/03/21 09:29:33;;;;;;;9.68;3.85;;;;;;;9.63;93.65;101267.91;5029873;28;20029;-83
2023/03/21 09:31:58;;;;;;;9.05;3.90;;;;;;;9.68;93.51;101255.69;5012393;28;20380;-83
2023/03/21 09:34:25;;;;;;;9.90;3.70;;;;;;;9.74;92.97;101262.53;5026839;28;20145;-83
2023/03/21 09:36:53;;;;;;;7.88;4.00;;;;;;;9.76;93.29;101260.78;5029684;28;20112;-83
2023/03/21 09:39:19;;;;;;;8.57;4.13;;;;;;;9.76;92.97;101252.97;5025630;28;20020;-83
2023/03/21 09:42:18;;;;;;;11.57;4.32;;;;;;;9.78;92.01;101253.81;5023484;28;20405;-83
2023/03/21 09:44:57;;;;;;;10.07;4.45;;;;;;;9.80;91.99;101256.41;5024085;28;20032;-83
2023/03/21 09:47:27;;;;;;;8.75;4.35;;;;;;;9.79;91.50;101252.94;5025388;28;20030;-83
2023/03/21 09:50:11;;;;;;;10.68;4.43;;;;;;;9.78;91.55;101253.81;5028279;28;20021;-83
2023/03/21 09:52:57;;;;;;;6.95;4.00;;;;;;;9.80;91.20;101251.22;5024395;28;20389;-82
2023/03/21 09:55:29;;;;;;;7.80;3.72;;;;;;;9.81;91.42;101238.19;5027663;28;20323;-83
2023/03/21 09:58:19;;;;;;;8.07;4.03;;;;;;;9.86;90.98;101235.50;5030436;28;20025;-83
2023/03/21 10:00:48;;;;;;;8.23;3.63;;;;;;;9.90;90.63;101241.53;5025617;28;20111;-84
2023/03/21 10:03:23;;;;;;;7.10;3.70;;;;;;;9.94;90.24;101237.97;5027852;28;20029;-83
2023/03/21 10:05:57;;;;;;;7.05;3.65;;;;;;;9.97;89.90;101230.13;5025134;28;20137;-83
2023/03/21 10:08:40;;;;;;;8.23;3.70;;;;;;;10.02;89.48;101228.31;5011428;28;20453;-83
2023/03/21 10:11:17;;;;;;;7.95;4.22;;;;;;;10.06;89.18;101231.72;5009160;28;20021;-83
2023/03/21 10:13:48;;;;;;;7.03;3.65;;;;;;;10.08;89.84;101219.56;5028985;28;20090;-83
2023/03/21 10:16:38;;;;;;;7.20;3.50;;;;;;;10.13;88.98;101213.38;5029965;28;20032;-83
2023/03/21 10:19:13;;;;;;;8.90;3.53;;;;;;;10.18;88.54;101210.69;5028198;28;20363;-81
2023/03/21 10:21:44;;;;;;;8.57;3.67;;;;;;;10.22;88.09;101208.91;5028306;28;20094;-83
2023/03/21 10:24:12;;;;;;;7.70;3.55;;;;;;;10.25;87.58;101211.44;5029389;28;20018;-82
2023/03/21 10:26:39;;;;;;;8.20;3.53;;;;;;;10.27;87.25;101212.25;5029996;28;20033;-83
2023/03/21 10:29:05;;;;;;;8.32;3.40;;;;;;;10.26;88.01;101205.34;5012276;28;20362;-83
2023/03/21 10:31:31;;;;;;;8.23;3.85;;;;;;;10.29;88.42;101202.69;5034339;28;20445;-83
2023/03/21 10:34:01;;;;;;;7.65;3.78;;;;;;;10.31;87.77;101195.72;5033511;28;20020;-83
2023/03/21 10:36:30;;;;;;;6.95;3.80;;;;;;;10.36;87.09;101204.31;5029263;28;20056;-82
2023/03/21 10:39:05;;;;;;;9.40;3.67;;;;;;;10.42;86.78;101208.56;5030148;28;20430;-82
2023/03/21 10:41:32;;;;;;;5.75;3.30;;;;;;;10.47;86.87;101196.34;5031457;28;20030;-83
2023/03/21 10:44:13;;;;;;;8.02;3.58;;;;;;;10.54;85.86;101203.13;5031390;28;20016;-83
2023/03/21 10:46:50;;;;;;;7.47;3.78;;;;;;;10.62;86.91;101198.63;5032208;28;20040;-82
2023/03/21 10:49:15;;;;;;;6.28;3.30;;;;;;;10.71;86.61;101207.13;5030432;28;20025;-83
2023/03/21 10:51:41;;;;;;;7.82;3.72;;;;;;;10.78;85.26;101203.50;5028322;28;20084;-83
2023/03/21 10:54:12;;;;;;;6.22;3.30;;;;;;;10.83;85.03;101206.00;5031111;28;20067;-83
2023/03/21 10:56:47;;;;;;;7.95;3.38;;;;;;;10.88;85.48;101212.00;5028680;28;20025;-82
2023/03/21 10:59:19;;;;;;;7.25;3.45;;;;;;;10.92;84.23;101205.84;5027614;28;20021;-83
2023/03/21 11:01:51;;;;;;;7.35;3.28;;;;;;;10.99;84.53;101204.78;5031370;28;20032;-83
2023/03/21 11:04:20;;;;;;;7.53;3.58;;;;;;;11.03;84.04;101203.84;5028995;28;20033;-83
2023/03/21 11:06:53;;;;;;;8.73;3.30;;;;;;;11.12;84.60;101205.38;5031311;28;20040;-83
2023/03/21 11:09:23;;;;;;;6.10;3.22;;;;;;;11.17;83.75;101197.47;5031413;28;20116;-83
2023/03/21 11:12:08;;;;;;;7.43;3.50;;;;;;;11.20;83.20;101192.19;5011513;28;20033;-83
2023/03/21 11:14:42;;;;;;;8.25;3.42;;;;;;;11.23;83.04;101200.78;5029946;28;20038;-83
2023/03/21 11:17:17;;;;;;;6.55;3.50;;;;;;;11.32;83.12;101204.09;5030051;28;20123;-83
2023/03/21 11:19:53;;;;;;;8.27;3.25;;;;;;;11.36;82.84;101192.69;5030805;28;20032;-83
2023/03/21 11:22:25;;;;;;;6.70;3.42;;;;;;;11.42;81.95;101189.09;5029244;28;20508;-83
2023/03/21 11:24:56;;;;;;;;;;;;;;;11.46;83.44;101183.78;5029343;28;20029;-83
2023/03/21 11:27:22;;;;;;;7.72;3.28;;;;;;;11.45;82.40;101195.09;5033583;28;20176;-83
2023/03/21 11:29:50;;;;;;;7.55;3.35;;;;;;;11.45;81.64;101199.44;5033389;28;20029;-83
2023/03/21 11:32:34;;;;;;;8.77;3.88;;;;;;;11.49;81.21;101182.84;5032839;28;20025;-83
2023/03/21 11:35:06;;;;;;;5.88;3.38;;;;;;;11.51;80.52;101181.94;5032298;28;20017;-83
2023/03/21 11:37:35;;;;;;;7.05;3.45;;;;;;;11.56;80.59;101183.53;5029647;28;20079;-83